createdAt,value
2022-12-19T00:01:56.922Z,29.83
2022-12-19T00:04:42.332Z,29.97
2022-12-19T00:07:27.309Z,30.35
2022-12-19T00:10:12.302Z,29.75
2022-12-19T00:12:57.113Z,29.59
2022-12-19T00:15:42.244Z,29.64
2022-12-19T00:18:27.194Z,28.97
2022-12-19T00:21:12.090Z,28.14
2022-12-19T00:23:57.076Z,27.94
2022-12-19T00:26:42.053Z,27.87
2022-12-19T00:29:26.971Z,28.29
2022-12-19T00:32:13.388Z,27.58
2022-12-19T00:35:01.172Z,27.15
2022-12-19T00:37:49.429Z,27.32
2022-12-19T00:40:34.643Z,27.56
2022-12-19T00:43:19.778Z,26.35
2022-12-19T00:46:04.707Z,27.31
2022-12-19T00:48:49.629Z,27.19
2022-12-19T00:51:34.575Z,26.78
2022-12-19T00:54:19.429Z,27.19
2022-12-19T00:57:04.873Z,27.48
2022-12-19T00:59:49.800Z,27.85
2022-12-19T01:02:34.861Z,27.44
2022-12-19T01:05:19.698Z,27.03
2022-12-19T01:08:05.709Z,27.51
2022-12-19T01:10:50.673Z,27.17
2022-12-19T01:13:35.595Z,26.72
2022-12-19T01:16:23.545Z,26.82
2022-12-19T01:19:08.324Z,28.09
2022-12-19T01:21:53.280Z,27.64
2022-12-19T01:24:38.239Z,27.45
2022-12-19T01:27:23.177Z,27.30
2022-12-19T01:30:08.088Z,27.50
2022-12-19T01:32:53.681Z,26.99
2022-12-19T01:35:38.700Z,26.11
2022-12-19T01:38:23.688Z,27.56
2022-12-19T01:41:08.574Z,26.90
2022-12-19T01:43:53.415Z,27.17
2022-12-19T01:46:38.468Z,27.41
2022-12-19T01:49:25.221Z,26.16
2022-12-19T01:52:12.342Z,27.00
2022-12-19T01:55:08.164Z,26.11
2022-12-19T01:57:53.088Z,26.61
2022-12-19T02:00:38.120Z,26.37
2022-12-19T02:03:22.922Z,26.87
2022-12-19T02:06:07.741Z,27.89
2022-12-19T02:08:52.592Z,28.05
2022-12-19T02:11:37.573Z,28.08
2022-12-19T02:14:22.499Z,26.73
2022-12-19T02:17:07.439Z,26.92
2022-12-19T02:19:52.309Z,27.46
2022-12-19T02:22:37.244Z,27.52
2022-12-19T02:25:22.105Z,27.36
2022-12-19T02:28:07.207Z,27.13
2022-12-19T02:30:52.293Z,27.09
2022-12-19T02:33:37.252Z,27.98
2022-12-19T02:36:22.193Z,28.10
2022-12-19T02:39:07.015Z,27.56
2022-12-19T02:41:51.853Z,27.65
2022-12-19T02:44:36.682Z,27.54
2022-12-19T02:47:21.689Z,27.40
2022-12-19T02:50:06.673Z,26.87
2022-12-19T02:52:51.568Z,27.28
2022-12-19T02:55:36.677Z,26.63
2022-12-19T02:58:21.596Z,25.81
2022-12-19T03:01:06.758Z,26.09
2022-12-19T03:03:51.505Z,26.24
2022-12-19T03:06:36.490Z,26.01
2022-12-19T03:09:21.355Z,25.69
2022-12-19T03:12:06.276Z,25.66
2022-12-19T03:14:51.208Z,25.68
2022-12-19T03:17:36.090Z,26.16
2022-12-19T03:20:20.915Z,25.59
2022-12-19T03:23:05.890Z,26.16
2022-12-19T03:25:52.465Z,25.81
2022-12-19T03:28:37.184Z,25.44
2022-12-19T03:31:22.185Z,26.53
2022-12-19T03:34:07.128Z,25.81
2022-12-19T03:36:53.418Z,25.17
2022-12-19T03:39:38.327Z,26.00
2022-12-19T03:42:23.294Z,26.15
2022-12-19T03:45:08.853Z,26.42
2022-12-19T03:47:54.346Z,25.91
2022-12-19T03:50:39.114Z,26.64
2022-12-19T03:53:24.186Z,26.44
2022-12-19T03:56:09.065Z,26.46
2022-12-19T03:58:53.972Z,27.23
2022-12-19T04:01:38.960Z,27.06
2022-12-19T04:04:23.810Z,27.40
2022-12-19T04:07:09.246Z,27.52
2022-12-19T04:09:54.368Z,27.83
2022-12-19T04:12:39.342Z,27.36
2022-12-19T04:15:24.266Z,26.90
2022-12-19T04:18:09.197Z,26.15
2022-12-19T04:20:54.077Z,26.45
2022-12-19T04:23:39.252Z,26.09
2022-12-19T04:26:24.175Z,26.41
2022-12-19T04:29:09.215Z,27.45
2022-12-19T04:31:54.176Z,26.76
2022-12-19T04:34:42.854Z,27.16
2022-12-19T04:37:28.181Z,27.09
2022-12-19T04:40:13.029Z,26.98
2022-12-19T04:42:57.876Z,26.47
2022-12-19T04:45:42.787Z,26.88
2022-12-19T04:48:28.084Z,26.63
2022-12-19T04:51:13.120Z,25.75
2022-12-19T04:53:58.007Z,26.39
2022-12-19T04:56:43.054Z,25.84
2022-12-19T04:59:27.807Z,25.25
2022-12-19T05:02:12.952Z,25.50
2022-12-19T05:04:58.164Z,25.78
2022-12-19T05:07:43.119Z,27.07
2022-12-19T05:10:28.121Z,26.07
2022-12-19T05:13:13.071Z,26.48
2022-12-19T05:15:58.080Z,25.88
2022-12-19T05:18:42.917Z,27.13
2022-12-19T05:21:27.821Z,26.48
2022-12-19T05:24:12.631Z,26.79
2022-12-19T05:26:57.530Z,27.02
2022-12-19T05:29:42.432Z,26.71
2022-12-19T05:32:27.460Z,26.81
2022-12-19T05:35:12.562Z,26.84
2022-12-19T05:37:57.467Z,28.10
2022-12-19T05:40:42.480Z,27.87
2022-12-19T05:43:27.231Z,28.44
2022-12-19T05:46:12.199Z,27.71
2022-12-19T05:48:57.017Z,27.65
2022-12-19T05:51:42.421Z,28.14
2022-12-19T05:54:27.439Z,28.59
2022-12-19T05:57:12.284Z,28.32
2022-12-19T05:59:57.201Z,29.40
2022-12-19T06:02:42.187Z,29.61
2022-12-19T06:05:27.628Z,28.98
2022-12-19T06:08:12.623Z,28.47
2022-12-19T06:10:58.775Z,29.50
2022-12-19T06:13:43.630Z,28.97
2022-12-19T06:16:28.637Z,29.07
2022-12-19T06:19:13.601Z,28.80
2022-12-19T06:21:58.403Z,28.85
2022-12-19T06:24:43.251Z,29.27
2022-12-19T06:27:28.149Z,29.96
2022-12-19T06:30:13.189Z,29.21
2022-12-19T06:32:58.093Z,29.17
2022-12-19T06:35:42.900Z,29.62
2022-12-19T06:38:27.870Z,29.43
2022-12-19T06:41:12.647Z,29.28
2022-12-19T06:43:57.521Z,29.02
2022-12-19T06:46:42.399Z,28.87
2022-12-19T06:49:28.043Z,27.06
2022-12-19T06:52:13.115Z,26.55
2022-12-19T06:54:58.155Z,25.41
2022-12-19T06:57:43.189Z,25.02
2022-12-19T07:00:28.144Z,25.13
2022-12-19T07:03:13.083Z,24.78
2022-12-19T07:05:57.973Z,24.88
2022-12-19T07:08:43.153Z,25.06
2022-12-19T07:11:27.932Z,25.16
2022-12-19T07:14:12.919Z,25.00
2022-12-19T07:16:57.752Z,24.94
2022-12-19T07:19:42.717Z,25.55
2022-12-19T07:22:27.643Z,27.08
2022-12-19T07:25:12.401Z,28.87
2022-12-19T07:27:57.324Z,29.32
2022-12-19T07:30:42.224Z,28.61
2022-12-19T07:33:27.036Z,27.44
2022-12-19T07:36:12.533Z,27.43
2022-12-19T07:38:57.318Z,28.05
2022-12-19T07:41:42.060Z,27.84
2022-12-19T07:44:27.028Z,27.65
2022-12-19T07:47:11.940Z,28.14
2022-12-19T07:49:56.950Z,28.39
2022-12-19T07:52:41.943Z,27.96
2022-12-19T07:55:26.789Z,28.96
2022-12-19T07:58:11.740Z,27.93
2022-12-19T08:00:56.656Z,26.78
2022-12-19T08:03:41.995Z,26.96
2022-12-19T08:06:26.861Z,26.46
2022-12-19T08:09:12.413Z,26.31
2022-12-19T08:11:57.374Z,25.32
2022-12-19T08:14:42.292Z,25.56
2022-12-19T08:17:27.346Z,26.08
2022-12-19T08:20:12.029Z,25.38
2022-12-19T08:22:56.992Z,25.53
2022-12-19T08:25:41.896Z,25.57
2022-12-19T08:28:26.829Z,25.85
2022-12-19T08:31:11.826Z,24.97
2022-12-19T08:33:56.755Z,25.42
2022-12-19T08:36:41.645Z,25.04
2022-12-19T08:39:26.384Z,22.88
2022-12-19T08:42:11.339Z,22.36
2022-12-19T08:44:56.181Z,22.11
2022-12-19T08:47:41.021Z,22.73
2022-12-19T08:50:25.931Z,24.38
2022-12-19T08:53:10.911Z,23.91
2022-12-19T08:55:55.869Z,23.77
2022-12-19T08:58:40.872Z,22.87
2022-12-19T09:01:25.845Z,23.83
2022-12-19T09:05:22.939Z,24.09
2022-12-19T09:07:16.250Z,24.30
2022-12-19T09:10:01.444Z,24.85
2022-12-19T09:12:49.064Z,24.48
2022-12-19T09:15:37.701Z,24.44
2022-12-19T09:18:23.811Z,24.95
2022-12-19T09:21:09.491Z,25.90
2022-12-19T09:23:54.407Z,26.22
2022-12-19T09:26:39.141Z,25.48
2022-12-19T09:29:23.947Z,25.36
2022-12-19T09:32:08.958Z,26.12
2022-12-19T09:34:53.808Z,25.48
2022-12-19T09:37:38.805Z,27.32
2022-12-19T09:40:23.655Z,26.78
2022-12-19T09:43:08.427Z,27.29
2022-12-19T09:45:53.276Z,27.17
2022-12-19T09:48:38.312Z,27.46
2022-12-19T09:51:23.105Z,27.46
2022-12-19T09:54:08.065Z,28.67
2022-12-19T09:56:53.102Z,27.99
2022-12-19T09:59:42.919Z,27.59
2022-12-19T10:02:33.228Z,27.96
2022-12-19T10:05:40.598Z,27.75
2022-12-19T10:08:23.787Z,28.10
2022-12-19T10:12:47.564Z,27.98
2022-12-19T10:14:13.600Z,26.91
2022-12-19T10:17:23.200Z,25.56
2022-12-19T10:20:03.663Z,25.45
2022-12-19T10:22:48.562Z,25.69
2022-12-19T10:25:33.686Z,25.00
2022-12-19T10:28:18.519Z,24.70
2022-12-19T10:31:12.498Z,24.30
2022-12-19T10:33:59.579Z,24.89
2022-12-19T10:37:12.885Z,25.38
2022-12-19T10:39:49.388Z,24.88
2022-12-19T10:42:34.287Z,24.49
2022-12-19T10:45:19.282Z,25.60
2022-12-19T10:48:04.008Z,24.71
2022-12-19T10:50:48.864Z,25.02
2022-12-19T10:53:33.699Z,23.57
2022-12-19T10:56:18.525Z,24.83
2022-12-19T10:59:03.399Z,25.53
2022-12-19T11:02:00.502Z,25.50
2022-12-19T11:04:46.294Z,24.77
2022-12-19T11:07:31.148Z,26.03
2022-12-19T11:10:47.291Z,26.90
2022-12-19T11:18:59.427Z,29.57
2022-12-19T11:19:26.096Z,29.48
2022-12-19T11:29:18.921Z,29.93
2022-12-19T11:30:06.172Z,29.04
2022-12-19T11:30:35.303Z,28.46
2022-12-19T11:30:35.541Z,28.96
2022-12-19T11:32:33.963Z,28.42
2022-12-19T11:34:56.553Z,28.75
2022-12-19T11:37:41.722Z,28.16
2022-12-19T11:40:26.719Z,27.32
2022-12-19T11:43:43.067Z,26.77
2022-12-19T11:46:21.793Z,26.18
2022-12-19T11:49:07.264Z,26.43
2022-12-19T11:51:52.142Z,26.00
2022-12-19T11:54:36.995Z,26.04
2022-12-19T11:57:21.702Z,26.68
2022-12-19T12:00:06.683Z,28.91
2022-12-19T12:02:51.735Z,28.74
2022-12-19T12:05:36.798Z,29.49
2022-12-19T12:09:25.362Z,28.63
2022-12-19T12:16:57.721Z,29.13
2022-12-19T12:25:01.438Z,29.58
2022-12-19T12:31:10.204Z,28.96
2022-12-19T12:31:14.423Z,29.92
2022-12-19T12:31:53.738Z,29.96
2022-12-19T12:32:00.980Z,29.94
2022-12-19T12:32:03.986Z,29.48
2022-12-19T12:35:30.457Z,29.49
2022-12-19T12:39:16.009Z,28.45
2022-12-19T12:42:05.864Z,28.65
2022-12-19T12:44:50.743Z,28.37
2022-12-19T12:47:35.570Z,28.78
2022-12-19T12:50:20.526Z,28.59
2022-12-19T12:53:05.378Z,28.32
2022-12-19T12:55:50.374Z,28.43
2022-12-19T12:58:35.234Z,27.79
2022-12-19T13:01:20.291Z,28.14
2022-12-19T13:04:06.609Z,28.63
2022-12-19T13:06:51.505Z,28.47
2022-12-19T13:09:36.319Z,28.54
2022-12-19T13:12:21.374Z,28.08
2022-12-19T13:15:06.256Z,28.75
2022-12-19T13:17:50.921Z,28.95
2022-12-19T13:20:35.891Z,28.83
2022-12-19T13:23:20.789Z,29.17
2022-12-19T13:26:05.729Z,29.52
2022-12-19T13:28:50.555Z,29.11
2022-12-19T13:31:35.421Z,28.58
2022-12-19T13:34:20.772Z,27.90
2022-12-19T13:39:50.479Z,28.27
2022-12-19T13:40:12.166Z,28.67
2022-12-19T13:43:09.702Z,28.17
2022-12-19T13:45:56.065Z,27.74
2022-12-19T13:48:41.071Z,28.18
2022-12-19T13:51:25.881Z,27.42
2022-12-19T13:54:10.772Z,27.12
2022-12-19T13:56:55.580Z,27.96
2022-12-19T13:59:40.521Z,26.63
2022-12-19T14:02:46.231Z,26.50
2022-12-19T14:06:14.773Z,26.99
2022-12-19T14:08:36.555Z,25.84
2022-12-19T14:11:44.271Z,25.25
2022-12-19T14:14:28.410Z,25.62
2022-12-19T14:17:13.814Z,25.52
2022-12-19T14:20:54.250Z,25.00
2022-12-19T14:23:03.987Z,24.61
2022-12-19T14:28:17.607Z,23.03
2022-12-19T14:28:55.082Z,22.09
2022-12-19T14:32:23.916Z,22.78
2022-12-19T14:36:04.902Z,21.17
2022-12-19T14:39:25.424Z,22.40
2022-12-19T14:41:07.283Z,22.58
2022-12-19T14:43:57.894Z,20.66
2022-12-19T14:53:52.389Z,19.31
2022-12-19T14:54:13.005Z,18.72
2022-12-19T14:54:29.064Z,18.99
2022-12-19T14:56:26.847Z,18.61
2022-12-19T14:59:05.974Z,17.84
2022-12-19T15:01:51.611Z,16.59
2022-12-19T15:04:52.641Z,16.53
2022-12-19T15:07:39.533Z,14.54
2022-12-19T15:11:06.382Z,14.26
2022-12-19T15:14:54.465Z,15.35
2022-12-19T15:16:34.407Z,15.68
2022-12-19T15:19:19.288Z,16.38
2022-12-19T15:22:04.282Z,17.02
2022-12-19T15:24:49.720Z,17.74
2022-12-19T15:27:34.553Z,17.95
2022-12-19T15:30:19.397Z,18.39
2022-12-19T15:33:04.816Z,18.93
2022-12-19T15:35:49.681Z,18.42
2022-12-19T15:38:34.656Z,18.40
2022-12-19T15:41:19.465Z,18.22
2022-12-19T15:44:05.561Z,18.32
2022-12-19T15:46:51.131Z,17.96
2022-12-19T15:49:36.065Z,18.78
2022-12-19T15:52:21.115Z,19.02
2022-12-19T15:55:06.028Z,18.85
2022-12-19T15:57:50.896Z,17.86
2022-12-19T16:00:35.716Z,18.54
2022-12-19T16:03:23.734Z,18.10
2022-12-19T16:06:09.640Z,18.38
2022-12-19T16:08:54.513Z,18.82
2022-12-19T16:11:40.512Z,18.00
2022-12-19T16:14:25.331Z,18.27
2022-12-19T16:17:10.296Z,17.49
2022-12-19T16:19:55.337Z,16.55
2022-12-19T16:22:40.167Z,15.84
2022-12-19T16:25:25.178Z,15.94
2022-12-19T16:28:09.994Z,16.00
2022-12-19T16:30:55.606Z,16.44
2022-12-19T16:33:40.521Z,16.62
2022-12-19T16:36:25.474Z,14.07
2022-12-19T16:39:10.673Z,13.23
2022-12-19T16:41:55.559Z,12.04
2022-12-19T16:44:40.539Z,10.85
2022-12-19T16:47:25.416Z,10.16
2022-12-19T16:50:10.122Z,8.89
2022-12-19T16:52:55.225Z,7.80
2022-12-19T16:55:40.062Z,7.23
2022-12-19T16:58:24.786Z,6.66
2022-12-19T17:01:09.741Z,7.04
2022-12-19T17:03:55.157Z,7.27
2022-12-19T17:06:40.030Z,7.90
2022-12-19T17:09:25.089Z,8.00
2022-12-19T17:12:09.793Z,7.90
2022-12-19T17:14:54.747Z,7.55
2022-12-19T17:17:39.682Z,7.23
2022-12-19T17:20:24.754Z,6.94
2022-12-19T17:23:09.621Z,6.06
2022-12-19T17:25:54.438Z,6.38
2022-12-19T17:28:39.209Z,6.30
2022-12-19T17:31:24.270Z,6.01
2022-12-19T17:34:09.535Z,5.93
2022-12-19T17:36:54.322Z,6.07
2022-12-19T17:39:39.234Z,6.00
2022-12-19T17:42:24.024Z,6.53
2022-12-19T17:45:08.942Z,6.73
2022-12-19T17:48:00.331Z,6.74
2022-12-19T17:50:47.288Z,6.28
2022-12-19T17:53:32.310Z,6.20
2022-12-19T17:56:17.193Z,6.50
2022-12-19T17:59:02.102Z,6.68
2022-12-19T18:01:47.325Z,7.00
2022-12-19T18:04:32.421Z,7.86
2022-12-19T18:07:17.295Z,7.58
2022-12-19T18:10:02.134Z,6.88
2022-12-19T18:12:47.006Z,6.63
2022-12-19T18:15:31.855Z,6.76
2022-12-19T18:18:16.806Z,8.49
2022-12-19T18:21:01.746Z,8.30
2022-12-19T18:23:46.620Z,7.99
2022-12-19T18:26:31.609Z,8.52
2022-12-19T18:29:16.412Z,8.04
2022-12-19T18:32:01.723Z,7.60
2022-12-19T18:34:46.473Z,6.95
2022-12-19T18:37:31.317Z,7.15
2022-12-19T18:40:21.206Z,6.93
2022-12-19T18:43:09.766Z,7.38
2022-12-19T18:45:54.749Z,7.50
2022-12-19T18:48:39.698Z,7.91
2022-12-19T18:51:24.527Z,7.95
2022-12-19T18:54:09.480Z,8.47
2022-12-19T18:56:54.423Z,9.19
2022-12-19T18:59:39.816Z,8.90
2022-12-19T19:02:24.975Z,9.00
2022-12-19T19:05:09.959Z,9.26
2022-12-19T19:07:54.970Z,9.10
2022-12-19T19:10:39.726Z,8.62
2022-12-19T19:13:24.674Z,8.07
2022-12-19T19:16:09.395Z,7.54
2022-12-19T19:18:54.386Z,8.55
2022-12-19T19:21:39.238Z,8.54
2022-12-19T19:24:24.164Z,8.02
2022-12-19T19:27:09.115Z,7.92
2022-12-19T19:29:53.997Z,8.11
2022-12-19T19:32:39.074Z,7.43
2022-12-19T19:35:23.759Z,7.50
2022-12-19T19:38:08.689Z,7.15
2022-12-19T19:40:53.392Z,6.33
2022-12-19T19:43:38.356Z,6.08
2022-12-19T19:46:23.066Z,5.68
2022-12-19T19:49:07.892Z,5.21
2022-12-19T19:51:57.021Z,5.56
2022-12-19T19:54:47.358Z,5.29
2022-12-19T19:57:32.254Z,4.97
2022-12-19T20:00:17.075Z,5.22
2022-12-19T20:03:06.360Z,4.66
2022-12-19T20:05:53.669Z,4.92
2022-12-19T20:08:40.198Z,4.60
2022-12-19T20:11:25.923Z,4.66
2022-12-19T20:14:10.725Z,5.08
2022-12-19T20:16:55.767Z,5.66
2022-12-19T20:19:40.563Z,5.80
2022-12-19T20:22:25.465Z,6.66
2022-12-19T20:25:10.368Z,6.99
2022-12-19T20:27:55.152Z,6.88
2022-12-19T20:30:40.201Z,6.97
2022-12-19T20:33:25.498Z,7.34
2022-12-19T20:36:10.356Z,8.41
2022-12-19T20:38:55.270Z,7.84
2022-12-19T20:41:40.294Z,7.39
2022-12-19T20:44:25.142Z,7.56
2022-12-19T20:47:10.081Z,7.31
2022-12-19T20:49:54.930Z,5.70
2022-12-19T20:52:39.817Z,5.83
2022-12-19T20:55:24.660Z,6.02
2022-12-19T20:58:09.522Z,5.94
2022-12-19T21:00:54.593Z,5.66
2022-12-19T21:03:39.697Z,5.18
2022-12-19T21:06:24.972Z,5.41
2022-12-19T21:09:09.719Z,5.26
2022-12-19T21:11:54.712Z,5.39
2022-12-19T21:14:39.596Z,5.49
2022-12-19T21:17:24.469Z,5.59
2022-12-19T21:20:09.264Z,6.75
2022-12-19T21:22:54.102Z,7.28
2022-12-19T21:25:39.017Z,7.03
2022-12-19T21:28:23.865Z,7.01
2022-12-19T21:31:08.824Z,6.89
2022-12-19T21:33:53.678Z,7.17
2022-12-19T21:36:38.632Z,7.24
2022-12-19T21:39:23.476Z,7.60
2022-12-19T21:42:08.436Z,8.26
2022-12-19T21:44:53.381Z,10.17
2022-12-19T21:47:38.250Z,9.95
2022-12-19T21:50:23.176Z,7.65
2022-12-19T21:53:08.144Z,6.37
2022-12-19T21:55:53.029Z,6.53
2022-12-19T21:58:37.947Z,7.04
2022-12-19T22:01:22.975Z,6.65
2022-12-19T22:04:08.320Z,8.97
2022-12-19T22:06:53.672Z,11.21
2022-12-19T22:09:38.571Z,9.87
2022-12-19T22:12:23.473Z,7.04
2022-12-19T22:15:11.211Z,6.58
2022-12-19T22:17:56.100Z,6.31
2022-12-19T22:20:40.932Z,6.43
2022-12-19T22:23:25.826Z,6.13
2022-12-19T22:26:10.816Z,6.29
2022-12-19T22:28:55.655Z,6.85
2022-12-19T22:31:40.561Z,7.82
2022-12-19T22:34:26.021Z,8.24
2022-12-19T22:37:10.936Z,8.38
2022-12-19T22:39:55.889Z,8.45
2022-12-19T22:42:40.700Z,7.92
2022-12-19T22:45:25.823Z,7.12
2022-12-19T22:48:11.161Z,6.76
2022-12-19T22:50:55.921Z,6.78
2022-12-19T22:53:40.932Z,6.46
2022-12-19T22:56:25.727Z,6.38
2022-12-19T22:59:10.661Z,6.79
2022-12-19T23:01:55.593Z,6.20
2022-12-19T23:04:41.028Z,6.35
2022-12-19T23:07:25.872Z,6.98
2022-12-19T23:10:10.785Z,7.55
2022-12-19T23:12:55.797Z,6.71
2022-12-19T23:15:40.724Z,5.99
2022-12-19T23:18:25.762Z,5.38
2022-12-19T23:21:10.523Z,5.03
2022-12-19T23:23:55.580Z,4.95
2022-12-19T23:26:40.539Z,4.80
2022-12-19T23:29:25.464Z,4.81
2022-12-19T23:32:10.346Z,5.21
2022-12-19T23:34:55.249Z,5.12
2022-12-19T23:37:40.069Z,5.21
2022-12-19T23:40:24.839Z,4.97
2022-12-19T23:43:09.642Z,4.61
2022-12-19T23:45:54.544Z,4.32
2022-12-19T23:48:39.440Z,4.31
2022-12-19T23:51:24.414Z,4.19
2022-12-19T23:54:09.330Z,4.21
2022-12-19T23:56:54.147Z,4.03
2022-12-19T23:59:39.046Z,3.86
